createdAt,value
2018-09-15T00:03:49.546Z,13.2
2018-09-15T00:08:52.007Z,13.1
2018-09-15T00:13:54.550Z,13
2018-09-15T00:18:56.869Z,13
2018-09-15T00:23:59.318Z,12.9
2018-09-15T00:29:01.779Z,12.8
2018-09-15T00:34:04.231Z,12.8
2018-09-15T00:39:06.639Z,12.8
2018-09-15T00:49:33.051Z,13
2018-09-15T01:14:40.791Z,13.6
2018-09-15T01:20:15.979Z,13.7
2018-09-15T01:25:21.835Z,13.6
2018-09-15T01:40:23.603Z,13.6
2018-09-15T01:49:45.951Z,13.5
2018-09-15T02:00:02.557Z,13.5
2018-09-15T02:05:30.595Z,13.5
2018-09-15T02:09:50.601Z,13.4
2018-09-15T02:14:54.360Z,13.4
2018-09-15T02:19:55.822Z,13.4
2018-09-15T02:24:57.873Z,13.4
2018-09-15T02:30:00.325Z,13.5
2018-09-15T02:35:02.794Z,13.6
2018-09-15T02:40:05.305Z,13.6
2018-09-15T02:45:07.681Z,13.6
2018-09-15T02:50:10.109Z,13.6
2018-09-15T02:55:12.552Z,13.6
2018-09-15T03:00:14.983Z,13.5
2018-09-15T03:05:17.456Z,13.5
2018-09-15T03:15:22.298Z,13.5
2018-09-15T03:20:24.736Z,13.6
2018-09-15T03:25:27.276Z,13.6
2018-09-15T03:30:29.612Z,13.6
2018-09-15T03:35:32.063Z,13.6
2018-09-15T03:40:34.505Z,13.5
2018-09-15T03:45:36.947Z,13.5
2018-09-15T03:50:39.422Z,13.5
2018-09-15T03:55:41.842Z,13.5
2018-09-15T04:00:44.271Z,13.5
2018-09-15T04:05:46.696Z,13.5
2018-09-15T04:10:49.124Z,13.5
2018-09-15T04:15:51.729Z,13.4
2018-09-15T04:20:54.127Z,13.4
2018-09-15T04:25:56.446Z,13.4
2018-09-15T04:30:58.961Z,13.4
2018-09-15T04:36:01.722Z,13.4
2018-09-15T04:41:03.838Z,13.4
2018-09-15T04:46:06.225Z,13.3
2018-09-15T04:51:08.656Z,13.3
2018-09-15T04:56:11.149Z,13.3
2018-09-15T05:01:13.543Z,13.3
2018-09-15T05:06:16.225Z,13.2
2018-09-15T05:11:18.432Z,13.2
2018-09-15T05:16:20.878Z,13.3
2018-09-15T05:21:23.286Z,13.3
2018-09-15T05:26:25.736Z,13.3
2018-09-15T05:31:28.213Z,13.3
2018-09-15T05:36:30.680Z,13.4
2018-09-15T05:41:33.078Z,13.4
2018-09-15T05:46:35.543Z,13.5
2018-09-15T05:51:37.940Z,13.5
2018-09-15T05:56:40.378Z,13.6
2018-09-15T06:01:42.854Z,13.6
2018-09-15T06:06:45.331Z,13.6
2018-09-15T06:11:47.718Z,13.6
2018-09-15T06:16:50.140Z,13.5
2018-09-15T06:21:52.591Z,13.6
2018-09-15T06:26:55.172Z,13.8
2018-09-15T06:31:57.482Z,13.9
2018-09-15T06:36:59.919Z,13.9
2018-09-15T06:42:02.359Z,13.8
2018-09-15T06:47:04.795Z,13.8
2018-09-15T06:52:07.293Z,13.8
2018-09-15T06:57:09.659Z,13.8
2018-09-15T07:02:12.108Z,13.8
2018-09-15T07:07:14.630Z,13.8
2018-09-15T07:12:16.993Z,13.8
2018-09-15T07:17:19.457Z,13.9
2018-09-15T07:22:21.901Z,14
2018-09-15T07:27:24.292Z,14.2
2018-09-15T07:32:26.759Z,14.4
2018-09-15T07:37:29.237Z,14.4
2018-09-15T07:42:31.653Z,14.5
2018-09-15T07:47:34.072Z,14.5
2018-09-15T07:52:36.510Z,14.6
2018-09-15T07:57:39.029Z,14.7
2018-09-15T08:02:41.392Z,14.7
2018-09-15T08:07:43.833Z,14.7
2018-09-15T08:12:46.261Z,14.5
2018-09-15T08:17:48.752Z,14.6
2018-09-15T08:22:51.305Z,14.8
2018-09-15T08:27:53.601Z,14.9
2018-09-15T08:32:56.071Z,15
2018-09-15T08:37:58.482Z,15
2018-09-15T08:43:00.919Z,15
2018-09-15T08:48:03.400Z,14.9
2018-09-15T08:53:05.790Z,14.8
2018-09-15T08:58:08.242Z,14.8
2018-09-15T09:03:10.882Z,14.7
2018-09-15T09:08:13.236Z,14.8
2018-09-15T09:13:15.558Z,14.9
2018-09-15T09:18:17.998Z,15.2
2018-09-15T09:23:20.427Z,15.3
2018-09-15T09:28:23.144Z,15.3
2018-09-15T09:33:25.340Z,15.2
2018-09-15T09:38:27.856Z,15.2
2018-09-15T09:43:30.262Z,15.3
2018-09-15T09:48:32.730Z,15.4
2018-09-15T09:53:35.091Z,15.4
2018-09-15T09:58:37.546Z,15.4
2018-09-15T10:03:39.977Z,15.5
2018-09-15T10:08:42.408Z,15.6
2018-09-15T10:13:44.850Z,15.7
2018-09-15T10:18:47.312Z,15.9
2018-09-15T10:23:49.719Z,16.2
2018-09-15T10:28:52.314Z,16.6
2018-09-15T10:33:54.638Z,16.8
2018-09-15T10:38:57.070Z,16.6
2018-09-15T10:43:59.630Z,16.2
2018-09-15T10:49:01.960Z,16.2
2018-09-15T10:54:04.374Z,16.7
2018-09-15T10:59:06.873Z,17.1
2018-09-15T11:04:09.254Z,17.6
2018-09-15T11:09:11.700Z,17.7
2018-09-15T11:14:14.163Z,17.2
2018-09-15T11:19:16.581Z,16.8
2018-09-15T11:24:19.021Z,17.3
2018-09-15T11:29:21.524Z,18.4
2018-09-15T11:34:23.889Z,19
2018-09-15T11:39:26.327Z,19.2
2018-09-15T11:44:28.964Z,19.6
2018-09-15T11:49:31.248Z,20.1
2018-09-15T11:54:33.662Z,20.3
2018-09-15T11:59:36.367Z,20.7
2018-09-15T12:04:38.541Z,21.6
2018-09-15T12:09:41.011Z,20.9
2018-09-15T12:14:43.554Z,21.6
2018-09-15T12:19:45.896Z,20.7
2018-09-15T12:29:50.891Z,22.7
2018-09-15T12:34:53.294Z,23
2018-09-15T12:39:55.646Z,23.7
2018-09-15T12:44:58.090Z,24.7
2018-09-15T12:50:00.543Z,25.6
2018-09-15T12:55:02.972Z,26.4
2018-09-15T13:00:05.459Z,26.6
2018-09-15T13:05:07.838Z,27
2018-09-15T13:10:10.826Z,27
2018-09-15T13:15:12.782Z,26.8
2018-09-15T13:20:15.301Z,24.6
2018-09-15T13:25:17.672Z,23.8
2018-09-15T13:30:20.089Z,25.7
2018-09-15T13:35:22.504Z,27.4
2018-09-15T13:40:24.942Z,28.5
2018-09-15T13:45:27.379Z,28.3
2018-09-15T13:50:29.823Z,25.8
2018-09-15T13:55:32.269Z,26.5
2018-09-15T14:00:34.709Z,27.9
2018-09-15T14:05:37.182Z,28.8
2018-09-15T14:10:39.642Z,29.4
2018-09-15T14:15:42.014Z,29.9
2018-09-15T14:20:44.469Z,30.5
2018-09-15T14:25:46.923Z,31.3
2018-09-15T14:30:49.366Z,32
2018-09-15T14:35:56.203Z,31.8
2018-09-15T14:40:54.320Z,32
2018-09-15T14:45:56.676Z,32.2
2018-09-15T14:50:59.150Z,32.9
2018-09-15T14:56:01.599Z,31.9
2018-09-15T15:01:03.999Z,31.8
2018-09-15T15:06:06.494Z,32.5
2018-09-15T15:11:08.890Z,33.3
2018-09-15T15:16:11.359Z,33.1
2018-09-15T15:21:13.783Z,31.1
2018-09-15T15:26:16.311Z,28.9
2018-09-15T15:31:18.655Z,28.2
2018-09-15T15:36:21.270Z,30.3
2018-09-15T15:41:23.541Z,29.9
2018-09-15T15:46:25.984Z,27.9
2018-09-15T15:51:28.515Z,26.5
2018-09-15T15:56:30.851Z,27.4
2018-09-15T16:01:33.326Z,27.3
2018-09-15T16:06:35.743Z,27
2018-09-15T16:11:38.286Z,27.2
2018-09-15T16:16:40.625Z,25.4
2018-09-15T16:21:43.073Z,23.9
2018-09-15T16:26:45.513Z,22.6
2018-09-15T16:31:47.966Z,21.8
2018-09-15T16:36:50.469Z,21.1
2018-09-15T16:41:52.847Z,20.5
2018-09-15T16:46:55.285Z,20
2018-09-15T16:51:57.731Z,19.4
2018-09-15T16:57:00.261Z,18.9
2018-09-15T17:02:02.632Z,18.6
2018-09-15T17:07:05.355Z,18.3
2018-09-15T17:12:07.540Z,18
2018-09-15T17:17:09.922Z,17.7
2018-09-15T17:22:12.383Z,17.5
2018-09-15T17:27:14.810Z,17.2
2018-09-15T17:32:17.250Z,17
2018-09-15T17:37:19.719Z,16.7
2018-09-15T17:42:22.164Z,16.5
2018-09-15T17:47:24.567Z,16.3
2018-09-15T17:52:27.025Z,16.2
2018-09-15T17:57:29.443Z,16
2018-09-15T18:02:31.939Z,15.8
2018-09-15T18:07:34.368Z,15.7
2018-09-15T18:12:36.780Z,15.5
2018-09-15T18:17:39.242Z,15.4
2018-09-15T18:22:41.652Z,15.2
2018-09-15T18:27:44.143Z,15.1
2018-09-15T18:32:46.534Z,14.9
2018-09-15T18:37:48.993Z,14.8
2018-09-15T18:42:51.464Z,14.8
2018-09-15T18:47:53.908Z,14.7
2018-09-15T18:52:56.347Z,14.6
2018-09-15T18:57:58.827Z,14.5
2018-09-15T19:03:01.165Z,14.4
2018-09-15T19:08:03.602Z,14.2
2018-09-15T19:13:06.178Z,14.1
2018-09-15T19:18:08.504Z,14
2018-09-15T19:23:11.010Z,13.8
2018-09-15T19:28:13.359Z,13.7
2018-09-15T19:33:15.823Z,13.7
2018-09-15T19:38:18.262Z,13.6
2018-09-15T19:43:20.731Z,13.5
2018-09-15T19:48:23.187Z,13.4
2018-09-15T19:53:25.582Z,13.2
2018-09-15T19:58:28.011Z,13.1
2018-09-15T20:03:30.483Z,13
2018-09-15T20:08:32.898Z,13
2018-09-15T20:13:35.340Z,12.9
2018-09-15T20:18:37.776Z,12.8
2018-09-15T20:23:40.282Z,12.7
2018-09-15T20:28:42.652Z,12.7
2018-09-15T20:33:45.209Z,12.6
2018-09-15T20:38:47.538Z,12.5
2018-09-15T20:43:50.008Z,12.4
2018-09-15T20:48:52.468Z,12.4
2018-09-15T20:53:54.861Z,12.3
2018-09-15T20:58:57.337Z,12.2
2018-09-15T21:03:59.740Z,12.2
2018-09-15T21:09:02.214Z,12.1
2018-09-15T21:14:04.809Z,12
2018-09-15T21:19:07.433Z,11.9
2018-09-15T21:24:09.519Z,11.8
2018-09-15T21:29:12.026Z,11.7
2018-09-15T21:34:14.418Z,11.6
2018-09-15T21:39:16.829Z,11.6
2018-09-15T21:44:19.255Z,11.5
2018-09-15T21:49:21.692Z,11.5
2018-09-15T21:54:24.148Z,11.5
2018-09-15T21:59:26.678Z,11.4
2018-09-15T22:04:29.312Z,11.3
2018-09-15T22:09:31.502Z,11.2
2018-09-15T22:14:33.941Z,11.2
2018-09-15T22:19:36.350Z,11.1
2018-09-15T22:24:38.820Z,11.1
2018-09-15T22:29:41.220Z,11.1
2018-09-15T22:34:43.658Z,11.1
2018-09-15T22:39:46.100Z,11.1
2018-09-15T22:44:48.544Z,11
2018-09-15T22:49:51.082Z,11
2018-09-15T22:54:53.677Z,11
2018-09-15T22:59:55.969Z,11
2018-09-15T23:04:58.329Z,10.9
2018-09-15T23:10:00.765Z,10.8
2018-09-15T23:15:03.233Z,10.8
2018-09-15T23:20:05.689Z,10.9
2018-09-15T23:25:08.171Z,10.8
2018-09-15T23:30:10.540Z,10.8
2018-09-15T23:35:13.006Z,10.8
2018-09-15T23:40:15.471Z,10.8
2018-09-15T23:45:17.820Z,10.8
2018-09-15T23:50:20.291Z,10.8
2018-09-15T23:55:22.724Z,10.8
